Time;durP1;ratioP1;P1;durP2;ratioP2;P2;SDS_P1;SDS_P2;PMS_P1;PMS_P2;Temp;Humidity;BMP_temperature;BMP_pressure;BME280_temperature;BME280_humidity;BME280_pressure;Samples;Min_cycle;Max_cycle;Signal;HPM_P1;HPM_P2
2023/04/13 00:00:12;;;;;;;5.90;3.03;;;;;;;-141.97;42.17;47599.81;5031607;28;20166;-82
2023/04/13 00:02:39;;;;;;;6.37;2.97;;;;;;;-141.97;42.62;47726.66;5012272;28;20320;-83
2023/04/13 00:05:09;;;;;;;6.43;3.37;;;;;;;-141.97;42.84;47459.50;5022618;28;20178;-83
2023/04/13 00:07:38;;;;;;;4.70;3.00;;;;;;;-141.97;43.24;47676.69;5020239;28;20277;-83
2023/04/13 00:10:08;;;;;;;4.93;3.07;;;;;;;-141.97;43.33;47636.31;5027915;28;20197;-82
2023/04/13 00:12:35;;;;;;;5.00;3.40;;;;;;;-141.97;43.57;47592.13;5033899;28;20218;-82
2023/04/13 00:15:04;;;;;;;6.90;3.33;;;;;;;-141.97;43.50;47695.91;5026255;28;20215;-82
2023/04/13 00:17:30;;;;;;;5.77;3.30;;;;;;;-141.97;43.84;47649.78;5025204;28;20166;-82
2023/04/13 00:19:58;;;;;;;6.17;3.50;;;;;;;-141.97;44.21;47572.91;5026044;28;20228;-83
2023/04/13 00:22:26;;;;;;;5.63;3.80;;;;;;;-141.97;44.13;47492.16;5024884;28;20167;-83
2023/04/13 00:25:03;;;;;;;5.70;4.00;;;;;;;-141.97;44.44;47588.28;5025429;28;20180;-84
2023/04/13 00:27:30;;;;;;;7.57;4.60;;;;;;;-141.97;44.06;47655.53;5038385;28;20170;-83
2023/04/13 00:29:56;;;;;;;7.53;3.93;;;;;;;-141.97;44.28;47592.13;5011616;28;20221;-83
2023/04/13 00:32:22;;;;;;;6.73;4.13;;;;;;;-141.97;44.55;47680.53;5023942;28;20634;-83
2023/04/13 00:34:48;;;;;;;9.10;4.50;;;;;;;-141.97;44.54;47672.84;5027055;28;20173;-83
2023/04/13 00:37:14;;;;;;;7.00;4.07;;;;;;;-141.97;44.39;47684.38;5024574;28;20166;-83
2023/04/13 00:39:42;;;;;;;8.87;3.93;;;;;;;-141.97;44.42;47619.03;5026984;28;20165;-81
2023/04/13 00:42:08;;;;;;;8.10;4.67;;;;;;;-141.97;44.09;47557.53;5029056;28;20491;-82
2023/04/13 00:44:35;;;;;;;7.63;4.30;;;;;;;-141.97;44.36;47619.03;5023358;28;20166;-83
2023/04/13 00:47:05;;;;;;;6.73;3.60;;;;;;;-141.97;44.13;47638.25;5025703;28;20171;-83
2023/04/13 00:49:33;;;;;;;6.30;3.03;;;;;;;-141.97;44.25;47569.06;5023127;28;20248;-83
2023/04/13 00:52:00;;;;;;;3.73;2.90;;;;;;;-141.97;44.22;47513.31;5022707;28;20246;-83
2023/04/13 00:54:28;;;;;;;5.63;3.20;;;;;;;-141.97;44.33;47599.81;5025257;28;20224;-83
2023/04/13 00:56:58;;;;;;;4.53;2.93;;;;;;;-141.97;44.39;47642.09;5024778;28;20905;-84
2023/04/13 00:59:28;;;;;;;5.73;3.10;;;;;;;-141.97;44.33;47688.22;5008093;28;20159;-83
2023/04/13 01:01:56;;;;;;;5.70;3.20;;;;;;;-141.97;44.69;47684.38;5024015;28;20375;-83
2023/04/13 01:04:26;;;;;;;5.03;3.00;;;;;;;-141.97;44.22;47605.56;5025693;28;20441;-83
2023/04/13 01:07:15;;;;;;;5.70;3.30;;;;;;;-141.97;44.45;47626.72;5008284;28;20333;-83
2023/04/13 01:09:49;;;;;;;3.83;2.97;;;;;;;-141.97;43.86;47653.63;5025911;28;20191;-83
2023/04/13 01:12:35;;;;;;;4.83;3.03;;;;;;;-141.97;43.84;47492.16;5016872;28;20238;-83
2023/04/13 01:15:07;;;;;;;5.57;3.13;;;;;;;-141.97;43.93;47584.44;5017931;28;20408;-83
2023/04/13 01:17:36;;;;;;;4.73;3.20;;;;;;;-141.97;44.35;47682.47;4998925;28;20639;-82
2023/04/13 01:20:10;;;;;;;6.03;3.67;;;;;;;-141.97;44.04;47615.19;5017854;28;20151;-82
2023/04/13 01:22:41;;;;;;;5.93;3.30;;;;;;;-141.97;44.25;47580.59;5016089;28;20443;-82
2023/04/13 01:25:39;;;;;;;6.03;3.63;;;;;;;-141.97;45.00;47580.59;5015811;28;20742;-82
2023/04/13 01:28:16;;;;;;;6.10;3.67;;;;;;;-141.97;45.38;47613.25;5014582;28;20162;-82
2023/04/13 01:30:43;;;;;;;7.00;3.43;;;;;;;-141.97;45.56;47642.09;5012759;28;20471;-82
2023/04/13 01:33:10;;;;;;;7.10;3.80;;;;;;;-141.97;45.43;47599.81;5014344;28;20409;-83
2023/04/13 01:35:37;;;;;;;8.63;4.37;;;;;;;-141.97;45.66;47542.16;5014490;28;20216;-82
2023/04/13 01:38:03;;;;;;;5.30;3.70;;;;;;;-141.97;45.91;47607.50;5013598;28;20568;-82
2023/04/13 01:40:29;;;;;;;6.27;3.50;;;;;;;-141.97;46.47;47595.97;4996430;28;20186;-82
2023/04/13 01:42:56;;;;;;;5.47;3.40;;;;;;;-141.97;46.38;47576.75;5013605;28;20426;-82
2023/04/13 01:45:26;;;;;;;6.60;3.80;;;;;;;-141.97;46.82;47586.34;5013773;28;20410;-83
2023/04/13 01:47:54;;;;;;;5.77;3.67;;;;;;;-141.97;47.41;47607.50;5013768;28;20401;-83
2023/04/13 01:50:28;;;;;;;5.17;3.70;;;;;;;-141.97;47.63;47667.06;5012172;28;20461;-83
2023/04/13 01:52:57;;;;;;;6.07;3.87;;;;;;;-141.97;48.35;47613.25;5013775;28;20410;-82
2023/04/13 01:55:23;;;;;;;5.57;3.50;;;;;;;-141.97;48.73;47569.06;5029630;28;20425;-82
2023/04/13 01:57:53;;;;;;;5.83;3.63;;;;;;;-141.97;49.05;47557.53;5024843;28;20405;-82
2023/04/13 02:00:19;;;;;;;5.30;3.47;;;;;;;-141.97;49.25;47613.25;5014928;28;20398;-81
2023/04/13 02:02:44;;;;;;;5.50;3.60;;;;;;;-141.97;49.55;47592.13;5013744;28;20772;-82
2023/04/13 02:05:10;;;;;;;6.40;3.70;;;;;;;-141.97;49.79;47582.50;5013326;28;20542;-82
2023/04/13 02:07:38;;;;;;;7.13;4.13;;;;;;;-141.97;49.96;47580.59;5013133;28;20166;-82
2023/04/13 02:10:05;;;;;;;5.80;3.53;;;;;;;-141.97;49.70;47605.56;5013045;28;20187;-82
2023/04/13 02:12:32;;;;;;;6.00;3.63;;;;;;;-141.97;50.22;47572.91;4995386;28;20469;-82
2023/04/13 02:14:58;;;;;;;6.07;3.77;;;;;;;-141.97;49.81;47538.28;5013282;28;20409;-82
2023/04/13 02:17:24;;;;;;;6.93;4.00;;;;;;;-141.97;49.81;47563.28;5013085;28;20417;-82
2023/04/13 02:19:50;;;;;;;5.97;3.50;;;;;;;-141.97;49.10;47588.28;5013040;28;20886;-82
2023/04/13 02:22:15;;;;;;;6.60;3.20;;;;;;;-141.97;48.73;47597.88;5011430;28;20498;-82
2023/04/13 02:24:41;;;;;;;5.43;3.37;;;;;;;-141.97;47.97;47632.47;5013008;28;20194;-82
2023/04/13 02:27:06;;;;;;;5.60;3.40;;;;;;;-141.97;47.58;47544.06;4995506;28;20569;-82
2023/04/13 02:29:33;;;;;;;5.20;3.07;;;;;;;-141.97;46.75;47567.13;5012734;28;20575;-82
2023/04/13 02:31:58;;;;;;;7.73;3.00;;;;;;;-141.97;46.09;47605.56;5012243;28;20576;-82
2023/04/13 02:34:25;;;;;;;6.43;3.40;;;;;;;-141.97;46.14;47603.66;5012632;28;20556;-83
2023/04/13 02:36:50;;;;;;;5.10;3.10;;;;;;;-141.97;46.30;47572.91;4995565;28;20552;-80
2023/04/13 02:39:15;;;;;;;6.30;3.50;;;;;;;-141.97;46.01;47555.59;5012666;28;20410;-81
2023/04/13 02:41:41;;;;;;;5.50;3.10;;;;;;;-141.97;45.71;47586.34;5012100;28;20223;-81
2023/04/13 02:44:07;;;;;;;5.60;2.83;;;;;;;-141.97;45.38;47513.31;5012755;28;20240;-83
2023/04/13 02:46:33;;;;;;;4.43;2.67;;;;;;;-141.97;45.20;47561.38;5013081;28;20166;-83
2023/04/13 02:48:58;;;;;;;7.33;3.23;;;;;;;-141.97;45.38;47572.91;5011376;28;20177;-82
2023/04/13 02:51:24;;;;;;;3.70;2.77;;;;;;;-141.97;45.20;47557.53;5012713;28;20166;-83
2023/04/13 02:53:51;;;;;;;5.57;3.30;;;;;;;-141.97;45.06;47688.22;5028348;28;20193;-82
2023/04/13 02:56:16;;;;;;;6.73;3.30;;;;;;;-141.97;45.20;47542.16;5032454;28;20162;-83
2023/04/13 02:58:43;;;;;;;9.23;3.67;;;;;;;-141.97;45.03;47480.63;5031152;28;20423;-83
2023/04/13 03:01:09;;;;;;;9.83;3.73;;;;;;;-141.97;44.85;47542.16;5044698;28;20158;-82
2023/04/13 03:03:34;;;;;;;5.93;3.63;;;;;;;-141.97;44.65;47599.81;5039538;28;20412;-82
2023/04/13 03:06:00;;;;;;;7.17;3.63;;;;;;;-141.97;44.87;47567.13;5032668;28;20224;-83
2023/04/13 03:08:26;;;;;;;8.63;3.73;;;;;;;-141.97;45.40;47619.03;5032088;28;20170;-83
2023/04/13 03:10:53;;;;;;;7.63;3.83;;;;;;;-141.97;45.58;47567.13;5031864;28;20234;-83
2023/04/13 03:13:19;;;;;;;6.17;3.80;;;;;;;-141.97;45.58;47688.22;5034732;28;20685;-81
2023/04/13 03:15:45;;;;;;;7.70;3.70;;;;;;;-141.97;46.39;47553.69;5032548;28;20471;-84
2023/04/13 03:18:10;;;;;;;7.37;4.40;;;;;;;-141.97;46.58;47540.22;5031812;28;20412;-82
2023/04/13 03:20:36;;;;;;;9.80;4.53;;;;;;;-141.97;46.78;47503.69;5032370;28;20197;-84
2023/04/13 03:23:03;;;;;;;8.63;4.00;;;;;;;-141.97;46.90;47542.16;5031833;28;20176;-83
2023/04/13 03:25:28;;;;;;;8.70;4.40;;;;;;;-141.97;47.07;47515.22;5014076;28;20246;-82
2023/04/13 03:27:54;;;;;;;9.27;4.37;;;;;;;-141.97;46.70;47592.13;5032168;28;20500;-83
2023/04/13 03:30:20;;;;;;;8.80;4.97;;;;;;;-141.97;46.82;47570.97;5014260;28;20575;-82
2023/04/13 03:32:45;;;;;;;7.87;4.67;;;;;;;-141.97;46.85;47619.03;5031932;28;20170;-83
2023/04/13 03:35:11;;;;;;;7.93;4.33;;;;;;;-141.97;47.60;47570.97;5032119;28;20562;-83
2023/04/13 03:37:41;;;;;;;8.63;4.20;;;;;;;-141.97;47.82;47605.56;5031591;28;20169;-83
2023/04/13 03:40:09;;;;;;;7.00;3.90;;;;;;;-141.97;47.80;47567.13;5030353;28;20162;-83
2023/04/13 03:42:34;;;;;;;9.60;4.10;;;;;;;-141.97;47.98;47634.41;5031627;28;20488;-82
2023/04/13 03:45:00;;;;;;;10.03;3.73;;;;;;;-141.97;48.08;47595.97;5011884;28;20950;-84
2023/04/13 03:47:25;;;;;;;7.03;4.00;;;;;;;-141.97;48.25;47590.19;5016659;28;20178;-82
2023/04/13 03:49:51;;;;;;;7.53;3.80;;;;;;;-141.97;47.75;47615.19;5012457;28;20191;-83
2023/04/13 03:52:16;;;;;;;10.93;3.97;;;;;;;-141.97;47.76;47686.31;5011774;28;20595;-83
2023/04/13 03:54:42;;;;;;;8.03;4.40;;;;;;;-141.97;47.44;47651.69;5011786;28;20159;-83
2023/04/13 03:57:08;;;;;;;13.60;4.77;;;;;;;-141.97;47.17;47595.97;5012222;28;20170;-83
2023/04/13 03:59:33;;;;;;;9.30;5.67;;;;;;;-141.97;46.73;47549.84;5010873;28;20250;-83
2023/04/13 04:01:58;;;;;;;10.97;5.97;;;;;;;-141.97;47.02;47601.72;5012077;28;20182;-83
2023/04/13 04:04:24;;;;;;;11.10;5.60;;;;;;;-141.97;47.23;47603.66;5012009;28;20236;-83
2023/04/13 04:06:50;;;;;;;8.87;5.30;;;;;;;-141.97;46.82;47653.63;5011588;28;20175;-83
2023/04/13 04:09:15;;;;;;;8.63;5.07;;;;;;;-141.97;46.56;47561.38;5010496;28;20201;-83
2023/04/13 04:11:41;;;;;;;8.17;4.70;;;;;;;-141.97;46.33;47584.44;5011378;28;20256;-83
2023/04/13 04:14:06;;;;;;;7.60;4.97;;;;;;;-141.97;46.10;47595.97;5012089;28;20249;-82
2023/04/13 04:16:31;;;;;;;9.77;5.37;;;;;;;-141.97;46.08;47594.03;5011881;28;20163;-83
2023/04/13 04:18:57;;;;;;;10.10;5.30;;;;;;;-141.97;45.84;47588.28;5011619;28;20222;-82
2023/04/13 04:21:22;;;;;;;10.63;5.47;;;;;;;-141.97;45.92;47576.75;5011367;28;20163;-84
2023/04/13 04:23:48;;;;;;;16.53;6.37;;;;;;;-141.97;45.60;47565.22;5011338;28;20305;-83
2023/04/13 04:26:13;;;;;;;7.93;4.90;;;;;;;-141.97;45.54;47599.81;5012065;28;20194;-83
2023/04/13 04:28:39;;;;;;;8.63;4.93;;;;;;;-141.97;45.32;47620.94;4977217;28;20584;-84
2023/04/13 04:31:11;;;;;;;10.37;6.60;;;;;;;-141.97;45.23;47584.44;5031155;28;20715;-82
2023/04/13 04:33:39;;;;;;;9.63;6.63;;;;;;;-141.97;45.10;47588.28;5031872;28;20178;-83
2023/04/13 04:36:12;;;;;;;10.80;5.53;;;;;;;-141.97;45.09;47609.41;5013269;28;20447;-84
2023/04/13 04:38:41;;;;;;;8.90;5.20;;;;;;;-141.97;44.97;47557.53;5030849;28;20482;-82
2023/04/13 04:41:07;;;;;;;8.53;4.90;;;;;;;-141.97;44.84;47611.34;5031043;28;20409;-82
2023/04/13 04:43:34;;;;;;;7.83;4.87;;;;;;;-141.97;44.49;47609.41;5030918;28;20518;-81
2023/04/13 04:46:01;;;;;;;7.50;4.63;;;;;;;-141.97;44.18;47599.81;5021108;28;20442;-82
2023/04/13 04:48:30;;;;;;;11.13;5.10;;;;;;;-141.97;44.05;47619.03;5019517;28;20421;-81
2023/04/13 04:50:56;;;;;;;10.80;4.83;;;;;;;-141.97;44.19;47607.50;5014200;28;20456;-83
2023/04/13 04:53:23;;;;;;;11.50;5.80;;;;;;;-141.97;44.02;47649.78;5010066;28;20417;-83
2023/04/13 04:55:48;;;;;;;22.93;8.77;;;;;;;-141.97;44.33;47603.66;5011704;28;20475;-83
2023/04/13 04:58:15;;;;;;;17.50;7.87;;;;;;;-141.97;43.99;47697.84;5014657;28;20488;-82
2023/04/13 05:00:41;;;;;;;13.90;6.50;;;;;;;-141.97;43.87;47505.63;5018075;28;20470;-83
2023/04/13 05:03:06;;;;;;;15.93;6.20;;;;;;;-141.97;43.57;47530.59;5014619;28;20421;-82
2023/04/13 05:05:32;;;;;;;10.90;5.13;;;;;;;-141.97;43.43;47688.22;4996301;28;20713;-83
2023/04/13 05:07:58;;;;;;;11.50;5.87;;;;;;;-141.97;43.35;47619.03;5014831;28;20169;-83
2023/04/13 05:10:27;;;;;;;9.40;5.00;;;;;;;-141.97;43.33;47453.72;5014720;28;20214;-83
2023/04/13 05:12:53;;;;;;;10.63;6.23;;;;;;;-141.97;42.91;47659.38;5014662;28;20414;-82
2023/04/13 05:15:18;;;;;;;11.30;5.40;;;;;;;-141.97;42.83;47511.38;5013407;28;20421;-82
2023/04/13 05:17:45;;;;;;;9.10;4.90;;;;;;;-141.97;42.75;47649.78;4996661;28;20414;-83
2023/04/13 05:20:12;;;;;;;11.33;5.10;;;;;;;-141.97;43.33;47669.00;5012144;28;20171;-82
2023/04/13 05:22:38;;;;;;;12.97;5.50;;;;;;;-141.97;42.78;47603.66;5019890;28;20456;-82
2023/04/13 05:25:05;;;;;;;9.03;4.70;;;;;;;-141.97;42.46;47455.66;5014521;28;20624;-82
2023/04/13 05:27:31;;;;;;;9.70;4.90;;;;;;;-141.97;42.25;47672.84;4986930;28;20241;-81
2023/04/13 05:29:57;;;;;;;9.47;5.10;;;;;;;-141.97;41.61;47603.66;5012095;28;20740;-82
2023/04/13 05:32:23;;;;;;;8.17;4.87;;;;;;;-141.97;41.65;47649.78;5012845;28;20175;-81
2023/04/13 05:34:49;;;;;;;9.03;4.97;;;;;;;-141.97;41.71;47519.06;5013923;28;20244;-82
2023/04/13 05:37:15;;;;;;;9.57;4.60;;;;;;;-141.97;41.32;47595.97;5013360;28;20643;-82
2023/04/13 05:39:50;;;;;;;7.23;4.30;;;;;;;-141.97;41.69;47551.75;5014354;28;20254;-82
2023/04/13 05:42:16;;;;;;;7.80;4.10;;;;;;;-141.97;40.99;47642.09;5013135;28;20600;-80
2023/04/13 05:44:41;;;;;;;6.17;3.93;;;;;;;-141.97;41.06;47620.94;5013317;28;20182;-81
2023/04/13 05:47:06;;;;;;;8.17;4.13;;;;;;;-141.97;40.95;47580.59;5014242;28;20174;-82
2023/04/13 05:49:32;;;;;;;10.83;4.70;;;;;;;-141.97;40.45;47603.66;5013047;28;20245;-81
2023/04/13 05:51:57;;;;;;;11.47;4.23;;;;;;;-141.97;39.97;47572.91;5015805;28;20171;-81
2023/04/13 05:54:23;;;;;;;6.47;3.60;;;;;;;-141.97;40.42;47636.31;5016375;28;20211;-81
2023/04/13 05:56:49;;;;;;;10.73;4.00;;;;;;;-141.97;40.10;47651.69;5013601;28;20163;-81
2023/04/13 05:59:15;;;;;;;6.17;4.00;;;;;;;-141.97;39.96;47551.75;5014130;28;20173;-82
2023/04/13 06:01:40;;;;;;;10.43;4.03;;;;;;;-141.97;39.33;47503.69;5013497;28;20236;-84
2023/04/13 06:04:08;;;;;;;8.17;4.83;;;;;;;-141.97;39.41;47603.66;5002739;28;20205;-83
2023/04/13 06:06:34;;;;;;;7.13;4.10;;;;;;;-141.97;39.71;47476.78;5031191;28;20185;-83
2023/04/13 06:09:00;;;;;;;9.83;4.70;;;;;;;-141.97;39.55;47594.03;5020023;28;20346;-83
2023/04/13 06:11:26;;;;;;;7.67;3.17;;;;;;;-141.97;39.14;47522.91;5012203;28;20305;-84
2023/04/13 06:13:51;;;;;;;6.13;3.70;;;;;;;-141.97;39.04;47717.06;5011378;28;20186;-83
2023/04/13 06:16:17;;;;;;;13.73;7.13;;;;;;;-141.97;38.56;47740.13;5013366;28;20163;-83
2023/04/13 06:18:43;;;;;;;9.23;5.70;;;;;;;-141.97;38.46;47530.59;4994817;28;20174;-82
2023/04/13 06:21:09;;;;;;;8.97;5.03;;;;;;;-141.97;37.95;47638.25;5013055;28;20167;-83
2023/04/13 06:23:34;;;;;;;8.97;4.90;;;;;;;-141.97;37.54;47638.25;5011150;28;20568;-83
2023/04/13 06:26:00;;;;;;;7.73;5.13;;;;;;;-141.97;37.41;47546.00;5013385;28;20162;-82
2023/04/13 06:28:28;;;;;;;10.27;5.37;;;;;;;-141.97;36.95;47534.44;5001686;28;20234;-83
2023/04/13 06:30:54;;;;;;;9.60;5.47;;;;;;;-141.97;36.88;47534.44;5015261;28;20190;-83
2023/04/13 06:33:21;;;;;;;14.73;7.17;;;;;;;-141.97;36.72;47682.47;5014910;28;20703;-83
2023/04/13 06:35:47;;;;;;;14.40;8.03;;;;;;;-141.97;36.62;47603.66;5032599;28;20178;-84
2023/04/13 06:38:13;;;;;;;12.67;7.70;;;;;;;-141.97;36.25;47726.66;5033621;28;20529;-83
2023/04/13 06:40:39;;;;;;;12.53;6.70;;;;;;;-141.97;36.04;47592.13;5032469;28;20166;-83
2023/04/13 06:43:04;;;;;;;17.03;8.40;;;;;;;-141.97;35.98;47515.22;5032513;28;20174;-83
2023/04/13 06:45:31;;;;;;;19.30;8.87;;;;;;;-141.97;35.75;47626.72;5015114;28;20645;-83
2023/04/13 06:47:56;;;;;;;20.93;9.37;;;;;;;-141.97;35.39;47561.38;5029316;28;20178;-84
2023/04/13 06:50:22;;;;;;;17.70;8.50;;;;;;;-141.97;35.14;47607.50;5035977;28;20206;-83
2023/04/13 06:52:49;;;;;;;16.37;8.27;;;;;;;-141.97;35.10;47546.00;5020284;28;20208;-84
2023/04/13 06:55:14;;;;;;;16.83;8.50;;;;;;;-141.97;34.45;47396.06;5009873;28;20293;-84
2023/04/13 06:57:40;;;;;;;22.00;9.30;;;;;;;-141.97;34.57;47528.69;5016216;28;20659;-83
2023/04/13 07:00:07;;;;;;;16.27;8.10;;;;;;;-141.97;34.09;47580.59;5033606;28;20249;-83
2023/04/13 07:02:33;;;;;;;13.90;6.47;;;;;;;-141.97;33.36;47553.69;5027460;28;20651;-83
2023/04/13 07:04:58;;;;;;;13.00;6.37;;;;;;;-141.97;33.09;47561.38;5012516;28;20166;-83
2023/04/13 07:07:24;;;;;;;11.27;6.30;;;;;;;-141.97;32.74;47482.56;5013996;28;20278;-83
2023/04/13 07:09:50;;;;;;;15.20;6.30;;;;;;;-141.97;32.74;47497.94;5007801;28;20693;-83
2023/04/13 07:12:15;;;;;;;13.13;6.30;;;;;;;-141.97;32.38;47676.69;5012267;28;20221;-82
2023/04/13 07:14:41;;;;;;;10.93;5.00;;;;;;;-141.97;31.76;47582.50;5021425;28;20627;-83
2023/04/13 07:17:07;;;;;;;10.73;4.93;;;;;;;-141.97;31.94;47524.84;4999859;28;20554;-82
2023/04/13 07:19:34;;;;;;;8.60;4.67;;;;;;;-141.97;31.38;47572.91;5013945;28;20162;-82
2023/04/13 07:22:01;;;;;;;4.00;2.30;;;;;;;-141.97;29.97;47565.22;5032475;28;20208;-84
2023/04/13 07:24:27;;;;;;;6.20;2.90;;;;;;;-141.97;30.19;47511.38;5020343;28;20190;-84
2023/04/13 07:26:55;;;;;;;2.50;2.10;;;;;;;-141.97;30.01;47440.28;5009790;28;20277;-85
2023/04/13 07:29:21;;;;;;;4.87;2.40;;;;;;;-141.97;29.98;47496.00;4994379;28;20641;-83
2023/04/13 07:31:46;;;;;;;2.73;1.90;;;;;;;-141.97;28.40;47446.03;5012208;28;20171;-83
2023/04/13 07:34:12;;;;;;;5.90;2.80;;;;;;;-141.97;28.62;47522.91;5012485;28;20167;-83
2023/04/13 07:36:37;;;;;;;8.57;2.33;;;;;;;-141.97;28.64;47457.56;5012569;28;20217;-84
2023/04/13 07:39:03;;;;;;;4.70;2.10;;;;;;;-141.97;27.57;47513.31;5012353;28;20205;-83
2023/04/13 07:41:29;;;;;;;3.13;2.60;;;;;;;-141.97;26.84;47542.16;5012862;28;20183;-84
2023/04/13 07:43:55;;;;;;;3.93;2.00;;;;;;;-141.97;27.25;47459.50;5013931;28;20190;-84
2023/04/13 07:46:25;;;;;;;4.30;2.00;;;;;;;-141.97;26.90;47580.59;4996831;28;20240;-84
2023/04/13 07:48:54;;;;;;;3.40;2.40;;;;;;;-141.97;26.97;47680.53;5013778;28;20618;-84
2023/04/13 07:51:20;;;;;;;3.73;2.10;;;;;;;-141.97;26.32;47553.69;5015302;28;20186;-84
2023/04/13 07:53:46;;;;;;;2.73;1.73;;;;;;;-141.97;25.64;47607.50;5032194;28;20179;-83
2023/04/13 07:56:11;;;;;;;2.60;2.00;;;;;;;-141.97;25.40;47617.09;5019896;28;20165;-82
2023/04/13 07:58:37;;;;;;;3.80;2.47;;;;;;;-141.97;25.63;47559.44;5017683;28;20650;-82
2023/04/13 08:01:03;;;;;;;2.17;1.60;;;;;;;-141.97;24.64;47628.63;5014638;28;20162;-84
2023/04/13 08:03:32;;;;;;;1.77;1.60;;;;;;;-141.97;24.81;47501.78;5020027;28;20261;-85
2023/04/13 08:05:58;;;;;;;3.17;1.77;;;;;;;-141.97;24.19;47626.72;5031519;28;20224;-84
2023/04/13 08:08:25;;;;;;;2.37;1.73;;;;;;;-141.97;24.63;47569.06;5032036;28;20168;-84
2023/04/13 08:10:51;;;;;;;8.80;2.57;;;;;;;-141.97;24.56;47392.22;5031295;28;20233;-84
2023/04/13 08:13:17;;;;;;;4.50;2.47;;;;;;;-141.97;24.90;47678.63;5014145;28;20360;-84
2023/04/13 08:15:42;;;;;;;2.33;1.70;;;;;;;-141.97;24.65;47363.41;5010308;28;20193;-83
2023/04/13 08:18:08;;;;;;;6.63;2.30;;;;;;;-141.97;24.76;47630.56;5011297;28;20166;-83
2023/04/13 08:20:34;;;;;;;2.87;2.10;;;;;;;-141.97;24.17;47661.31;5011988;28;20158;-83
2023/04/13 08:22:59;;;;;;;1.93;1.70;;;;;;;-141.97;24.33;47595.97;5011446;28;20606;-85
2023/04/13 08:25:25;;;;;;;3.73;2.00;;;;;;;-141.97;24.12;47582.50;5026308;28;20245;-83
2023/04/13 08:27:51;;;;;;;3.07;1.57;;;;;;;-141.97;24.01;47351.88;5021242;28;20612;-84
2023/04/13 08:30:17;;;;;;;3.57;1.67;;;;;;;-141.97;23.82;47403.75;5032999;28;20225;-84
2023/04/13 08:32:43;;;;;;;2.30;1.70;;;;;;;-141.97;23.59;47676.69;5017820;28;20243;-83
2023/04/13 08:35:10;;;;;;;2.40;1.70;;;;;;;-141.97;23.71;47588.28;5017592;28;20189;-84
2023/04/13 08:37:36;;;;;;;3.40;2.00;;;;;;;-141.97;23.66;47401.84;5018149;28;20199;-83
2023/04/13 08:40:06;;;;;;;3.30;2.00;;;;;;;-141.97;23.30;47484.47;5035224;28;20233;-84
2023/04/13 08:42:33;;;;;;;3.93;1.80;;;;;;;-141.97;23.46;47348.03;5036069;28;20165;-84
2023/04/13 08:45:00;;;;;;;2.67;1.90;;;;;;;-141.97;23.61;47692.06;5034725;28;20182;-84
2023/04/13 08:47:27;;;;;;;2.17;1.90;;;;;;;-141.97;24.33;47521.00;5035303;28;20538;-83
2023/04/13 08:50:01;;;;;;;2.73;1.80;;;;;;;-141.97;24.28;47619.03;5033157;28;20664;-82
2023/04/13 08:52:27;;;;;;;2.20;1.77;;;;;;;-141.97;23.98;47532.53;5015036;28;20166;-80
2023/04/13 08:54:56;;;;;;;3.50;2.00;;;;;;;-141.97;24.38;47323.03;5012915;28;20210;-81
2023/04/13 08:57:22;;;;;;;3.23;1.90;;;;;;;-141.97;24.26;47547.91;4997083;28;20175;-81
2023/04/13 08:59:51;;;;;;;3.90;1.87;;;;;;;-141.97;24.36;47472.94;5013579;28;20240;-82
2023/04/13 09:02:23;;;;;;;3.73;2.00;;;;;;;-141.97;24.22;47388.38;5013166;28;20173;-81
2023/04/13 09:04:56;;;;;;;3.13;2.03;;;;;;;-141.97;24.38;47380.69;5014163;28;20199;-80
2023/04/13 09:07:25;;;;;;;5.23;2.50;;;;;;;-141.97;24.12;47615.19;5014113;28;20269;-81
2023/04/13 09:09:58;;;;;;;5.70;2.47;;;;;;;-141.97;23.98;47376.84;5012380;28;20187;-82
2023/04/13 09:12:28;;;;;;;2.47;1.90;;;;;;;-141.97;23.95;47490.25;5013865;28;20221;-81
2023/04/13 09:14:54;;;;;;;3.70;2.00;;;;;;;-141.97;23.90;47551.75;5013319;28;20166;-80
2023/04/13 09:17:24;;;;;;;4.03;2.00;;;;;;;-141.97;23.89;47467.19;5013987;28;20181;-81
2023/04/13 09:19:50;;;;;;;3.57;2.10;;;;;;;-141.97;23.87;47478.72;5013655;28;20182;-81
2023/04/13 09:22:15;;;;;;;3.87;2.00;;;;;;;-141.97;23.91;47507.53;5013343;28;20237;-80
2023/04/13 09:24:41;;;;;;;3.03;2.20;;;;;;;-141.97;23.98;47615.19;5014418;28;20174;-81
2023/04/13 09:27:19;;;;;;;3.07;2.10;;;;;;;-141.97;24.10;47438.34;5014455;28;20163;-80
2023/04/13 09:29:52;;;;;;;5.33;2.37;;;;;;;-141.97;23.95;47426.81;5011686;28;20203;-81
2023/04/13 09:32:22;;;;;;;6.53;2.53;;;;;;;-141.97;24.13;47382.63;5013199;28;20202;-81
2023/04/13 09:35:03;;;;;;;4.90;2.40;;;;;;;-141.97;23.70;47496.00;5013838;28;20603;-82
2023/04/13 09:37:29;;;;;;;3.70;2.30;;;;;;;-141.97;24.27;47478.72;5013487;28;20610;-81
2023/04/13 09:39:54;;;;;;;8.60;2.37;;;;;;;-141.97;24.32;47357.63;4995698;28;20229;-80
2023/04/13 09:42:20;;;;;;;3.70;2.37;;;;;;;-141.97;24.44;47653.63;5012405;28;20159;-80
2023/04/13 09:44:56;;;;;;;3.37;2.13;;;;;;;-141.97;24.25;47446.03;5013300;28;20179;-80
2023/04/13 09:47:22;;;;;;;2.80;2.10;;;;;;;-141.97;24.53;47392.22;5013410;28;20242;-81
2023/04/13 09:49:48;;;;;;;4.47;2.40;;;;;;;-141.97;24.33;47474.88;5013442;28;20540;-81
2023/04/13 09:52:24;;;;;;;3.87;2.30;;;;;;;-141.97;24.30;47413.38;5013520;28;20212;-81
2023/04/13 09:54:57;;;;;;;3.77;2.20;;;;;;;-141.97;24.02;47482.56;5013698;28;20170;-80
2023/04/13 09:57:24;;;;;;;3.23;2.37;;;;;;;-141.97;24.47;47409.53;5013608;28;20186;-81
2023/04/13 09:59:51;;;;;;;5.40;2.73;;;;;;;-141.97;24.18;47430.66;5005447;28;20167;-82
2023/04/13 10:02:18;;;;;;;3.40;2.57;;;;;;;-141.97;24.01;47492.16;5017782;28;20170;-83
2023/04/13 10:04:44;;;;;;;3.30;2.10;;;;;;;-141.97;24.66;47336.50;5002151;28;20177;-81
2023/04/13 10:07:12;;;;;;;4.67;2.33;;;;;;;-141.97;24.53;47496.00;5033601;28;20169;-80
2023/04/13 10:09:37;;;;;;;3.93;2.83;;;;;;;-141.97;24.17;47624.78;5019720;28;20289;-83
2023/04/13 10:12:05;;;;;;;4.30;2.90;;;;;;;-141.97;23.94;47357.63;4996216;28;20242;-82
2023/04/13 10:14:34;;;;;;;3.80;2.50;;;;;;;-141.97;24.79;47438.34;5013318;28;20162;-81
2023/04/13 10:17:36;;;;;;;2.63;2.20;;;;;;;-141.97;25.42;47496.00;5012025;28;20670;-81
2023/04/13 10:20:11;;;;;;;4.10;2.57;;;;;;;-141.97;25.15;47474.88;5013274;28;20479;-82
2023/04/13 10:22:42;;;;;;;3.97;2.40;;;;;;;-141.97;25.07;47492.16;4995733;28;20182;-81
2023/04/13 10:25:13;;;;;;;2.83;2.40;;;;;;;-141.97;25.04;47457.56;5014464;28;20662;-81
2023/04/13 10:27:40;;;;;;;6.53;2.67;;;;;;;-141.97;25.46;47626.72;5003439;28;20158;-83
2023/04/13 10:30:16;;;;;;;4.00;2.60;;;;;;;-141.97;25.48;47492.16;5013396;28;20198;-81
2023/04/13 10:32:42;;;;;;;3.47;2.70;;;;;;;-141.97;25.64;47647.84;4995988;28;20740;-81
2023/04/13 10:35:10;;;;;;;2.57;2.27;;;;;;;-141.97;25.99;47453.72;5013766;28;20163;-82
2023/04/13 10:37:38;;;;;;;4.97;2.70;;;;;;;-141.97;25.66;47507.53;4995529;28;20194;-81
2023/04/13 10:40:09;;;;;;;4.07;2.63;;;;;;;-141.97;25.91;47659.38;5014132;28;20161;-81
2023/04/13 10:42:52;;;;;;;4.33;2.60;;;;;;;-141.97;26.36;47467.19;5012964;28;20162;-81
2023/04/13 10:45:20;;;;;;;14.30;3.40;;;;;;;-141.97;26.08;47384.53;4996299;28;20171;-82
2023/04/13 10:47:45;;;;;;;4.93;2.40;;;;;;;-141.97;25.92;47419.13;5013866;28;20154;-81
2023/04/13 10:50:21;;;;;;;4.07;2.40;;;;;;;-141.97;25.71;47449.88;5012759;28;20629;-81
2023/04/13 10:53:07;;;;;;;2.60;2.30;;;;;;;-141.97;25.86;47630.56;5012168;28;20178;-81
2023/04/13 10:55:34;;;;;;;5.93;3.30;;;;;;;-141.97;25.65;47330.72;5030136;28;20663;-81
2023/04/13 10:58:01;;;;;;;4.77;3.13;;;;;;;-141.97;25.75;47488.31;5045198;28;20162;-81
2023/04/13 11:00:29;;;;;;;4.37;3.23;;;;;;;-141.97;25.16;47378.78;5021704;28;20658;-83
2023/04/13 11:02:58;;;;;;;5.03;3.70;;;;;;;-141.97;25.42;47353.78;5012387;28;20166;-82
2023/04/13 11:05:26;;;;;;;5.20;3.30;;;;;;;-141.97;25.76;47472.94;5011632;28;20624;-83
2023/04/13 11:07:52;;;;;;;5.20;3.00;;;;;;;-141.97;25.91;47501.78;5012096;28;20238;-85
2023/04/13 11:10:27;;;;;;;5.83;3.30;;;;;;;-141.97;26.42;47442.19;5012354;28;20190;-83
2023/04/13 11:12:54;;;;;;;5.20;3.10;;;;;;;-141.97;26.03;47469.09;5012071;28;20221;-85
2023/04/13 11:15:28;;;;;;;7.50;3.13;;;;;;;-141.97;26.05;47453.72;5011785;28;20169;-84
2023/04/13 11:17:56;;;;;;;7.90;3.40;;;;;;;-141.97;26.03;47463.34;5012866;28;20472;-84